Tiger Wave — 9V8790 — position and weather

sailwx.info

Track history (hours):
 
Tides and Currents Weather Stations Pressure Air Temp Water Temp Dewpoint Dewpoint Depression Visibility Wind Speed Wind Dir Waves Ship Positions

Tiger Wave

Last reported at 2018-Feb-11 23:08 UTC. Time now 2018-Feb-20 12:08 UTC.
Position N 01°16' E 103°23'.
Warning: this ship's position is 8 days out of date.

Length 148 m; draft 6.8 m.

Type: Ship (hazmat cat A). MMSI: 564211000.

Date/timePositionNaut miles runAvg speedWind from/ knotsBaromVisibWave heightAir tempDewpointWater temp
2018-Feb-11 23:08N 01°16' E 103°23'414.3
2018-Feb-11 22:52N 01°14' E 103°26'614.5
2018-Feb-11 22:29N 01°12' E 103°32'715.1
2018-Feb-11 22:01N 01°11' E 103°39'713.6
2018-Feb-11 21:30N 01°09' E 103°45'816.4
2018-Feb-11 21:00N 01°13' E 103°52'4 7.5
2018-Feb-11 20:30N 01°16' E 103°50'0 0.6
2018-Feb-11 19:56N 01°16' E 103°50'0 0.0
2018-Feb-11 19:29N 01°16' E 103°50'0 0.0
2018-Feb-11 18:59N 01°16' E 103°50'0 0.0
2018-Feb-11 18:30N 01°16' E 103°50'0 0.0
2018-Feb-11 17:55N 01°16' E 103°50'0 0.0
2018-Feb-11 17:25N 01°16' E 103°50'0 0.0
2018-Feb-11 16:55N 01°16' E 103°50'0 0.0
2018-Feb-11 16:30N 01°16' E 103°50'0 0.0
2018-Feb-11 15:57N 01°16' E 103°50'0 0.0
2018-Feb-11 15:24N 01°16' E 103°50'0 0.0
2018-Feb-11 15:00N 01°16' E 103°50'0 0.0
2018-Feb-11 14:29N 01°16' E 103°50'0 0.0
2018-Feb-11 13:53N 01°16' E 103°50'0 0.0
2018-Feb-11 13:23N 01°16' E 103°50'0 0.0
2018-Feb-11 12:59N 01°16' E 103°50'0 0.0
2018-Feb-11 12:23N 01°16' E 103°50'0 0.0
2018-Feb-11 11:58N 01°16' E 103°50'0 0.0
2018-Feb-11 11:25N 01°16' E 103°50'0 0.1
2018-Feb-11 10:59N 01°16' E 103°50'2 3.5
2018-Feb-11 10:31N 01°15' E 103°51'3 5.2
2018-Feb-11 10:00N 01°13' E 103°53'3 4.8
2018-Feb-11 09:28N 01°11' E 103°52'4 8.8
2018-Feb-11 08:59N 01°10' E 103°48'5 9.0
2018-Feb-11 08:28N 01°07' E 103°45'5 9.3
2018-Feb-11 07:59N 01°04' E 103°41'4 8.6
2018-Feb-11 07:29N 01°04' E 103°37'5 9.4
2018-Feb-11 06:59N 01°06' E 103°33'4 9.1
2018-Feb-11 06:30N 01°08' E 103°29'5 9.2
2018-Feb-11 05:59N 01°11' E 103°25'5 9.3
2018-Feb-11 05:29N 01°14' E 103°22'5 9.2
2018-Feb-11 04:58N 01°17' E 103°18'38 8.1
2018-Feb-11 00:20N 01°38' E 102°46'3 8.9
2018-Feb-10 23:59N 01°39' E 102°44'4 8.9
2018-Feb-10 23:30N 01°41' E 102°40'5 9.4
2018-Feb-10 23:00N 01°43' E 102°36'5 9.3
2018-Feb-10 22:26N 01°45' E 102°31'4 9.2
2018-Feb-10 22:00N 01°47' E 102°27'  
Track history (hours):
 
Tides and Currents Weather Stations Pressure Air Temp Water Temp Dewpoint Dewpoint Depression Visibility Wind Speed Wind Dir Waves Ship Positions

Tiger Wave

Last reported at 2018-Feb-11 23:08 UTC. Time now 2018-Feb-20 12:08 UTC.
Position N 01°16' E 103°23'.
Warning: this ship's position is 8 days out of date.

Length 148 m; draft 6.8 m.

Type: Ship (hazmat cat A). MMSI: 564211000.

Date/timePositionNaut miles runAvg speedWind from/ knotsBaromVisibWave heightAir tempDewpointWater temp
2018-Feb-11 23:08N 01°16' E 103°23'414.3
2018-Feb-11 22:52N 01°14' E 103°26'614.5
2018-Feb-11 22:29N 01°12' E 103°32'715.1
2018-Feb-11 22:01N 01°11' E 103°39'713.6
2018-Feb-11 21:30N 01°09' E 103°45'816.4
2018-Feb-11 21:00N 01°13' E 103°52'4 7.5
2018-Feb-11 20:30N 01°16' E 103°50'0 0.6
2018-Feb-11 19:56N 01°16' E 103°50'0 0.0
2018-Feb-11 19:29N 01°16' E 103°50'0 0.0
2018-Feb-11 18:59N 01°16' E 103°50'0 0.0
2018-Feb-11 18:30N 01°16' E 103°50'0 0.0
2018-Feb-11 17:55N 01°16' E 103°50'0 0.0
2018-Feb-11 17:25N 01°16' E 103°50'0 0.0
2018-Feb-11 16:55N 01°16' E 103°50'0 0.0
2018-Feb-11 16:30N 01°16' E 103°50'0 0.0
2018-Feb-11 15:57N 01°16' E 103°50'0 0.0
2018-Feb-11 15:24N 01°16' E 103°50'0 0.0
2018-Feb-11 15:00N 01°16' E 103°50'0 0.0
2018-Feb-11 14:29N 01°16' E 103°50'0 0.0
2018-Feb-11 13:53N 01°16' E 103°50'0 0.0
2018-Feb-11 13:23N 01°16' E 103°50'0 0.0
2018-Feb-11 12:59N 01°16' E 103°50'0 0.0
2018-Feb-11 12:23N 01°16' E 103°50'0 0.0
2018-Feb-11 11:58N 01°16' E 103°50'0 0.0
2018-Feb-11 11:25N 01°16' E 103°50'0 0.1
2018-Feb-11 10:59N 01°16' E 103°50'2 3.5
2018-Feb-11 10:31N 01°15' E 103°51'3 5.2
2018-Feb-11 10:00N 01°13' E 103°53'3 4.8
2018-Feb-11 09:28N 01°11' E 103°52'4 8.8
2018-Feb-11 08:59N 01°10' E 103°48'5 9.0
2018-Feb-11 08:28N 01°07' E 103°45'5 9.3
2018-Feb-11 07:59N 01°04' E 103°41'4 8.6
2018-Feb-11 07:29N 01°04' E 103°37'5 9.4
2018-Feb-11 06:59N 01°06' E 103°33'4 9.1
2018-Feb-11 06:30N 01°08' E 103°29'5 9.2
2018-Feb-11 05:59N 01°11' E 103°25'5 9.3
2018-Feb-11 05:29N 01°14' E 103°22'5 9.2
2018-Feb-11 04:58N 01°17' E 103°18'38 8.1
2018-Feb-11 00:20N 01°38' E 102°46'3 8.9
2018-Feb-10 23:59N 01°39' E 102°44'4 8.9
2018-Feb-10 23:30N 01°41' E 102°40'5 9.4
2018-Feb-10 23:00N 01°43' E 102°36'5 9.3
2018-Feb-10 22:26N 01°45' E 102°31'4 9.2
2018-Feb-10 22:00N 01°47' E 102°27'  

Dump ship's entire track history